createdAt,value
2022-09-13T00:00:49.456Z,19.80
2022-09-13T00:03:51.126Z,18.10
2022-09-13T00:06:52.717Z,18.10
2022-09-13T00:09:54.337Z,17.90
2022-09-13T00:12:55.932Z,21.00
2022-09-13T00:15:58.412Z,20.60
2022-09-13T00:19:00.667Z,18.20
2022-09-13T00:22:02.232Z,18.30
2022-09-13T00:25:05.441Z,18.20
2022-09-13T00:28:07.306Z,18.90
2022-09-13T00:31:09.881Z,20.30
2022-09-13T00:34:11.691Z,19.20
2022-09-13T00:37:13.221Z,21.10
2022-09-13T00:40:14.886Z,18.70
2022-09-13T00:43:22.222Z,18.10
2022-09-13T00:46:48.411Z,18.50
2022-09-13T00:49:53.805Z,19.80
2022-09-13T00:53:04.933Z,20.40
2022-09-13T00:56:14.453Z,18.90
2022-09-13T00:59:24.594Z,20.80
2022-09-13T01:02:28.768Z,18.00
2022-09-13T01:05:38.638Z,20.60
2022-09-13T01:08:43.054Z,20.90
2022-09-13T01:11:55.644Z,20.80
2022-09-13T01:14:58.861Z,20.60
2022-09-13T01:18:00.558Z,17.70
2022-09-13T01:21:14.200Z,20.40
2022-09-13T01:24:24.800Z,18.10
2022-09-13T01:27:42.869Z,18.90
2022-09-13T01:31:10.956Z,18.70
2022-09-13T01:34:30.250Z,20.30
2022-09-13T01:37:43.666Z,18.50
2022-09-13T01:41:04.981Z,18.30
2022-09-13T01:44:52.288Z,20.80
2022-09-13T01:47:59.348Z,18.70
2022-09-13T01:51:04.511Z,18.20
2022-09-13T01:54:37.200Z,20.40
2022-09-13T01:57:49.467Z,18.40
2022-09-13T02:01:03.489Z,20.60
2022-09-13T02:04:18.170Z,20.70
2022-09-13T02:07:35.380Z,21.10
2022-09-13T02:10:46.156Z,20.10
2022-09-13T02:13:56.212Z,19.80
2022-09-13T02:17:15.198Z,20.90
2022-09-13T02:20:23.099Z,18.60
2022-09-13T02:23:32.399Z,20.80
2022-09-13T02:26:37.889Z,20.60
2022-09-13T02:29:42.579Z,20.90
2022-09-13T02:32:51.610Z,19.70
2022-09-13T02:36:00.813Z,19.00
2022-09-13T02:39:06.374Z,18.20
2022-09-13T02:42:23.130Z,18.40
2022-09-13T02:45:31.977Z,18.60
2022-09-13T02:49:01.972Z,18.20
2022-09-13T02:52:23.535Z,18.50
2022-09-13T02:55:48.269Z,18.90
2022-09-13T02:59:24.808Z,18.90
2022-09-13T03:02:32.565Z,20.60
2022-09-13T03:05:34.284Z,18.30
2022-09-13T03:08:37.347Z,20.80
2022-09-13T03:11:57.413Z,20.70
2022-09-13T03:15:04.858Z,18.20
2022-09-13T03:18:25.298Z,18.70
2022-09-13T03:21:52.412Z,20.80
2022-09-13T03:25:22.926Z,18.50
2022-09-13T03:28:48.796Z,18.90
2022-09-13T03:32:10.645Z,19.00
2022-09-13T03:35:21.668Z,18.70
2022-09-13T03:43:41.459Z,19.90
2022-09-13T03:46:49.899Z,18.50
2022-09-13T03:49:52.758Z,18.90
2022-09-13T03:53:03.137Z,20.10
2022-09-13T03:56:17.634Z,18.70
2022-09-13T03:59:20.412Z,17.70
2022-09-13T04:02:24.451Z,18.90
2022-09-13T04:05:26.356Z,17.70
2022-09-13T04:08:27.975Z,18.70
2022-09-13T04:11:30.171Z,17.90
2022-09-13T04:14:31.982Z,19.40
2022-09-13T04:17:33.805Z,20.50
2022-09-13T04:20:36.017Z,20.50
2022-09-13T04:23:38.283Z,18.50
2022-09-13T04:26:39.861Z,17.70
2022-09-13T04:29:41.645Z,17.20
2022-09-13T04:32:44.451Z,17.50
2022-09-13T04:35:46.446Z,17.60
2022-09-13T04:38:48.229Z,18.40
2022-09-13T04:41:51.862Z,20.30
2022-09-13T04:44:53.471Z,19.70
2022-09-13T04:47:56.540Z,17.40
2022-09-13T04:51:04.525Z,17.10
2022-09-13T04:54:06.378Z,20.00
2022-09-13T04:57:08.463Z,17.70
2022-09-13T05:00:10.555Z,20.00
2022-09-13T05:03:12.133Z,18.00
2022-09-13T05:06:17.925Z,20.20
2022-09-13T05:09:19.624Z,19.40
2022-09-13T05:12:21.171Z,20.60
2022-09-13T05:15:28.551Z,17.40
2022-09-13T05:18:32.733Z,18.20
2022-09-13T05:21:34.387Z,18.10
2022-09-13T05:24:35.961Z,19.00
2022-09-13T05:27:40.158Z,19.70
2022-09-13T05:30:42.406Z,19.30
2022-09-13T05:33:59.812Z,20.00
2022-09-13T05:37:01.480Z,17.90
2022-09-13T05:40:12.342Z,20.40
2022-09-13T05:43:14.581Z,18.00
2022-09-13T05:46:21.965Z,20.80
2022-09-13T05:49:25.265Z,17.30
2022-09-13T05:52:29.678Z,19.80
2022-09-13T05:55:31.878Z,19.50
2022-09-13T05:58:35.376Z,19.70
2022-09-13T06:01:37.144Z,19.00
2022-09-13T06:04:38.926Z,17.70
2022-09-13T06:07:42.181Z,20.50
2022-09-13T06:10:43.815Z,20.00
2022-09-13T06:13:45.455Z,20.00
2022-09-13T06:16:47.158Z,20.20
2022-09-13T06:19:48.846Z,17.80
2022-09-13T06:22:50.437Z,18.40
2022-09-13T06:26:02.138Z,19.70
2022-09-13T06:29:03.760Z,20.40
2022-09-13T06:32:05.829Z,19.70
2022-09-13T06:35:08.294Z,18.50
2022-09-13T06:38:09.880Z,18.70
2022-09-13T06:41:20.568Z,20.60
2022-09-13T06:44:22.533Z,19.20
2022-09-13T06:47:24.282Z,18.00
2022-09-13T06:50:25.955Z,20.40
2022-09-13T06:53:28.922Z,18.40
2022-09-13T06:56:32.761Z,20.20
2022-09-13T06:59:34.958Z,20.70
2022-09-13T07:02:36.600Z,18.50
2022-09-13T07:05:38.130Z,18.70
2022-09-13T07:08:46.571Z,20.20
2022-09-13T07:11:50.349Z,19.40
2022-09-13T07:14:51.887Z,20.90
2022-09-13T07:17:53.470Z,18.40
2022-09-13T07:21:01.182Z,18.50
2022-09-13T07:24:04.113Z,18.60
2022-09-13T07:27:05.738Z,19.20
2022-09-13T07:30:07.922Z,19.40
2022-09-13T07:33:09.530Z,19.30
2022-09-13T07:36:12.239Z,21.10
2022-09-13T07:39:22.070Z,21.00
2022-09-13T07:42:24.187Z,21.30
2022-09-13T07:45:25.790Z,21.30
2022-09-13T07:48:33.239Z,19.40
2022-09-13T07:51:37.435Z,18.90
2022-09-13T07:54:39.074Z,19.70
2022-09-13T07:57:40.752Z,20.90
2022-09-13T08:00:42.461Z,20.70
2022-09-13T08:03:44.476Z,21.10
2022-09-13T08:06:46.977Z,20.70
2022-09-13T08:09:48.785Z,20.30
2022-09-13T08:12:50.441Z,21.60
2022-09-13T08:15:52.179Z,22.50
2022-09-13T08:18:55.678Z,19.50
2022-09-13T08:21:57.265Z,22.10
2022-09-13T08:24:58.862Z,22.40
2022-09-13T08:28:01.748Z,22.70
2022-09-13T08:31:12.185Z,22.20
2022-09-13T08:34:15.110Z,23.10
2022-09-13T08:37:16.781Z,21.70
2022-09-13T08:40:18.766Z,20.60
2022-09-13T08:43:49.230Z,20.10
2022-09-13T08:46:51.818Z,20.80
2022-09-13T08:50:17.247Z,23.30
2022-09-13T08:53:26.082Z,20.60
2022-09-13T08:56:48.425Z,20.70
2022-09-13T09:00:28.060Z,22.70
2022-09-13T09:03:43.035Z,21.20
2022-09-13T09:06:45.022Z,23.50
2022-09-13T09:09:53.771Z,20.60
2022-09-13T09:12:59.382Z,23.30
2022-09-13T09:16:35.238Z,23.00
2022-09-13T09:19:41.928Z,21.30
2022-09-13T09:22:45.534Z,21.00
2022-09-13T09:25:47.598Z,20.90
2022-09-13T09:29:16.484Z,20.80
2022-09-13T09:32:32.787Z,21.40
2022-09-13T09:35:47.801Z,21.40
2022-09-13T09:38:49.473Z,24.10
2022-09-13T09:41:51.338Z,22.80
2022-09-13T09:45:04.653Z,23.90
2022-09-13T09:48:14.842Z,22.00
2022-09-13T09:51:20.133Z,21.60
2022-09-13T09:54:23.150Z,23.40
2022-09-13T09:58:08.283Z,24.20
2022-09-13T10:01:18.742Z,22.30
2022-09-13T10:04:22.518Z,23.70
2022-09-13T10:07:35.742Z,23.10
2022-09-13T10:10:42.727Z,23.50
2022-09-13T10:14:02.529Z,23.60
2022-09-13T10:17:26.663Z,22.00
2022-09-13T10:20:28.345Z,22.20
2022-09-13T10:23:32.405Z,24.00
2022-09-13T10:26:34.406Z,22.60
2022-09-13T10:29:36.350Z,23.50
2022-09-13T10:32:37.998Z,23.10
2022-09-13T10:35:39.664Z,22.90
2022-09-13T10:38:47.883Z,25.40
2022-09-13T10:41:57.883Z,24.50
2022-09-13T10:45:01.380Z,22.90
2022-09-13T10:48:13.953Z,24.90
2022-09-13T10:51:21.935Z,24.90
2022-09-13T10:54:24.133Z,24.90
2022-09-13T10:57:35.361Z,25.20
2022-09-13T11:00:42.789Z,25.70
2022-09-13T11:03:56.943Z,23.50
2022-09-13T11:07:16.634Z,23.50
2022-09-13T11:10:29.146Z,24.00
2022-09-13T11:13:49.568Z,22.60
2022-09-13T11:17:03.918Z,23.90
2022-09-13T11:20:32.113Z,25.70
2022-09-13T11:23:59.742Z,24.10
2022-09-13T11:27:14.727Z,24.10
2022-09-13T11:30:29.808Z,25.20
2022-09-13T11:33:37.703Z,27.00
2022-09-13T11:36:50.700Z,24.00
2022-09-13T11:39:59.693Z,24.10
2022-09-13T11:43:41.306Z,26.70
2022-09-13T11:47:13.296Z,24.80
2022-09-13T11:50:55.832Z,24.20
2022-09-13T11:54:16.313Z,24.90
2022-09-13T11:57:25.283Z,24.50
2022-09-13T12:00:33.088Z,24.30
2022-09-13T12:03:43.496Z,24.10
2022-09-13T12:06:50.334Z,26.70
2022-09-13T12:10:21.384Z,23.70
2022-09-13T12:13:27.420Z,25.00
2022-09-13T12:16:36.773Z,26.70
2022-09-13T12:19:51.623Z,25.00
2022-09-13T12:22:55.772Z,24.70
2022-09-13T12:26:17.504Z,24.40
2022-09-13T12:29:45.476Z,25.40
2022-09-13T12:32:49.037Z,25.10
2022-09-13T12:35:56.261Z,28.00
2022-09-13T12:39:35.224Z,25.70
2022-09-13T12:42:46.371Z,25.70
2022-09-13T12:46:09.637Z,25.20
2022-09-13T12:49:31.022Z,27.80
2022-09-13T12:53:29.044Z,25.10
2022-09-13T12:56:37.235Z,23.90
2022-09-13T13:00:02.510Z,24.80
2022-09-13T13:03:12.168Z,27.00
2022-09-13T13:06:48.885Z,25.30
2022-09-13T13:09:56.310Z,25.30
2022-09-13T13:13:11.131Z,25.80
2022-09-13T13:16:27.822Z,27.00
2022-09-13T13:19:32.276Z,25.30
2022-09-13T13:22:43.306Z,25.10
2022-09-13T13:26:08.044Z,27.50
2022-09-13T13:29:29.966Z,25.20
2022-09-13T13:32:31.720Z,25.40
2022-09-13T13:35:33.602Z,26.30
2022-09-13T13:38:41.830Z,27.00
2022-09-13T13:41:49.419Z,27.20
2022-09-13T13:44:56.924Z,26.20
2022-09-13T13:48:35.751Z,28.00
2022-09-13T13:51:37.706Z,25.30
2022-09-13T13:54:42.380Z,24.40
2022-09-13T13:57:59.581Z,26.80
2022-09-13T14:01:02.790Z,24.40
2022-09-13T14:04:33.524Z,26.80
2022-09-13T14:07:52.898Z,24.80
2022-09-13T14:11:42.223Z,26.80
2022-09-13T14:15:13.460Z,24.90
2022-09-13T14:18:15.112Z,25.60
2022-09-13T14:21:25.037Z,27.30
2022-09-13T14:24:31.344Z,25.10
2022-09-13T14:27:43.683Z,24.10
2022-09-13T14:30:49.563Z,26.90
2022-09-13T14:33:52.823Z,27.90
2022-09-13T14:36:57.804Z,25.90
2022-09-13T14:40:18.824Z,26.40
2022-09-13T14:43:24.190Z,25.00
2022-09-13T14:46:37.526Z,26.40
2022-09-13T14:49:49.011Z,27.30
2022-09-13T14:52:58.545Z,26.50
2022-09-13T14:56:22.394Z,24.60
2022-09-13T14:59:29.912Z,27.40
2022-09-13T15:02:37.826Z,26.00
2022-09-13T15:05:40.595Z,25.40
2022-09-13T15:08:48.079Z,27.10
2022-09-13T15:11:53.237Z,27.10
2022-09-13T15:15:26.174Z,25.80
2022-09-13T15:18:36.655Z,26.90
2022-09-13T15:21:39.191Z,23.70
2022-09-13T15:24:54.627Z,24.20
2022-09-13T15:27:57.553Z,26.30
2022-09-13T15:31:00.966Z,26.90
2022-09-13T15:34:17.990Z,25.90
2022-09-13T15:37:30.178Z,26.20
2022-09-13T15:40:43.313Z,25.80
2022-09-13T15:43:47.867Z,25.50
2022-09-13T15:47:02.189Z,23.30
2022-09-13T15:50:04.356Z,26.70
2022-09-13T15:53:12.079Z,23.80
2022-09-13T15:56:19.976Z,23.60
2022-09-13T15:59:22.417Z,23.50
2022-09-13T16:02:30.783Z,24.20
2022-09-13T16:05:33.250Z,25.90
2022-09-13T16:08:36.435Z,25.40
2022-09-13T16:11:38.332Z,23.00
2022-09-13T16:14:40.681Z,23.80
2022-09-13T16:17:42.612Z,25.40
2022-09-13T16:20:45.410Z,23.40
2022-09-13T16:23:47.425Z,25.80
2022-09-13T16:26:49.250Z,25.40
2022-09-13T16:29:51.010Z,25.20
2022-09-13T16:32:52.736Z,23.20
2022-09-13T16:35:54.461Z,25.20
2022-09-13T16:39:00.831Z,24.90
2022-09-13T16:42:02.615Z,24.80
2022-09-13T16:45:05.035Z,25.10
2022-09-13T16:48:08.327Z,23.10
2022-09-13T16:51:13.448Z,25.10
2022-09-13T16:54:15.853Z,23.00
2022-09-13T16:57:22.666Z,21.80
2022-09-13T17:00:29.659Z,24.90
2022-09-13T17:03:34.138Z,25.00
2022-09-13T17:06:36.159Z,24.60
2022-09-13T17:09:40.632Z,22.80
2022-09-13T17:12:42.999Z,25.10
2022-09-13T17:15:45.016Z,20.90
2022-09-13T17:18:46.894Z,24.20
2022-09-13T17:21:52.348Z,25.40
2022-09-13T17:24:58.761Z,24.50
2022-09-13T17:28:00.711Z,22.70
2022-09-13T17:31:03.440Z,24.60
2022-09-13T17:34:07.891Z,22.70
2022-09-13T17:37:10.482Z,20.60
2022-09-13T17:40:12.661Z,25.30
2022-09-13T17:43:20.773Z,22.70
2022-09-13T17:46:25.073Z,23.40
2022-09-13T17:49:26.963Z,24.70
2022-09-13T17:52:34.729Z,24.40
2022-09-13T17:55:37.060Z,23.60
2022-09-13T17:58:38.941Z,24.70
2022-09-13T18:01:48.294Z,23.90
2022-09-13T18:04:53.338Z,24.10
2022-09-13T18:07:55.141Z,23.70
2022-09-13T18:11:13.108Z,23.50
2022-09-13T18:14:19.781Z,22.10
2022-09-13T18:17:21.527Z,24.10
2022-09-13T18:20:23.455Z,23.30
2022-09-13T18:23:31.791Z,22.20
2022-09-13T18:26:37.351Z,21.40
2022-09-13T18:29:51.162Z,24.30
2022-09-13T18:33:03.863Z,24.00
2022-09-13T18:42:15.908Z,24.10
2022-09-13T18:44:37.714Z,23.40
2022-09-13T18:51:01.502Z,23.80
2022-09-13T18:54:06.362Z,22.40
2022-09-13T18:57:08.916Z,21.70
2022-09-13T19:00:11.296Z,22.90
2022-09-13T19:03:13.680Z,21.60
2022-09-13T19:06:22.088Z,21.90
2022-09-13T19:09:24.766Z,21.50
2022-09-13T19:12:26.844Z,22.90
2022-09-13T19:15:29.033Z,23.60
2022-09-13T19:18:31.335Z,23.60
2022-09-13T19:21:34.133Z,23.50
2022-09-13T19:27:55.827Z,21.20
2022-09-13T19:31:04.377Z,23.60
2022-09-13T19:34:07.736Z,22.20
2022-09-13T19:37:10.720Z,23.60
2022-09-13T19:40:20.148Z,23.30
2022-09-13T19:43:25.977Z,23.70
2022-09-13T19:50:05.159Z,20.70
2022-09-13T19:56:38.000Z,23.20
2022-09-13T19:59:43.316Z,21.80
2022-09-13T20:06:11.598Z,20.30
2022-09-13T20:09:17.465Z,22.70
2022-09-13T20:12:25.840Z,24.30
2022-09-13T20:15:32.420Z,23.50
2022-09-13T20:18:38.509Z,21.30
2022-09-13T20:21:45.106Z,18.70
2022-09-13T20:24:46.951Z,21.60
2022-09-13T20:27:49.021Z,22.60
2022-09-13T20:30:56.134Z,22.80
2022-09-13T20:34:01.006Z,23.10
2022-09-13T20:40:22.993Z,24.00
2022-09-13T20:43:28.775Z,23.10
2022-09-13T20:49:47.740Z,22.70
2022-09-13T20:52:50.686Z,22.00
2022-09-13T20:59:10.712Z,21.60
2022-09-13T21:02:26.436Z,19.90
2022-09-13T21:05:28.511Z,20.30
2022-09-13T21:08:49.797Z,21.60
2022-09-13T21:11:51.862Z,21.20
2022-09-13T21:18:24.065Z,17.70
2022-09-13T21:21:32.105Z,23.00
2022-09-13T21:31:14.501Z,21.70
2022-09-13T21:34:20.827Z,18.90
2022-09-13T21:37:26.752Z,20.10
2022-09-13T21:40:28.848Z,19.90
2022-09-13T21:43:32.771Z,21.40
2022-09-13T21:46:37.696Z,20.50
2022-09-13T21:49:40.417Z,20.10
2022-09-13T21:56:01.905Z,21.70
2022-09-13T21:59:06.845Z,20.70
2022-09-13T22:05:25.718Z,20.00
2022-09-13T22:08:33.063Z,19.70
2022-09-13T22:11:39.950Z,23.10
2022-09-13T22:14:41.660Z,20.20
2022-09-13T22:17:44.554Z,20.70
2022-09-13T22:20:52.563Z,21.80
2022-09-13T22:23:56.919Z,21.50
2022-09-13T22:26:59.604Z,19.50
2022-09-13T22:30:01.977Z,21.00
2022-09-13T22:33:03.941Z,20.90
2022-09-13T22:39:32.499Z,20.40
2022-09-13T22:46:09.169Z,19.20
2022-09-13T22:49:17.581Z,19.50
2022-09-13T22:55:37.278Z,18.80
2022-09-13T22:58:42.759Z,20.80
2022-09-13T23:01:47.361Z,21.70
2022-09-13T23:04:59.119Z,21.80
2022-09-13T23:08:04.167Z,20.70
2022-09-13T23:11:19.460Z,18.90
2022-09-13T23:14:21.614Z,20.30
2022-09-13T23:17:23.449Z,21.10
2022-09-13T23:20:26.373Z,18.80
2022-09-13T23:23:33.168Z,18.40
2022-09-13T23:26:35.498Z,15.90
2022-09-13T23:29:39.385Z,21.40
2022-09-13T23:32:50.997Z,18.20
2022-09-13T23:35:59.148Z,18.50
2022-09-13T23:39:05.077Z,19.50
2022-09-13T23:42:14.283Z,20.40
2022-09-13T23:48:32.090Z,19.20
